createdAt,value
2018-12-26T00:00:42.546Z,5.45
2018-12-26T00:03:12.772Z,6.60
2018-12-26T00:08:30.852Z,5.80
2018-12-26T00:11:00.283Z,6.23
2018-12-26T00:13:29.681Z,6.67
2018-12-26T00:15:59.282Z,5.87
2018-12-26T00:18:28.863Z,5.87
2018-12-26T00:20:58.366Z,6.87
2018-12-26T00:23:27.826Z,6.62
2018-12-26T00:26:01.594Z,7.10
2018-12-26T00:28:28.418Z,6.70
2018-12-26T00:30:57.950Z,7.37
2018-12-26T00:33:27.455Z,6.67
2018-12-26T00:35:56.846Z,6.90
2018-12-26T00:38:26.405Z,7.53
2018-12-26T00:41:14.953Z,7.80
2018-12-26T00:43:44.401Z,7.97
2018-12-26T00:46:13.797Z,7.60
2018-12-26T00:48:43.242Z,8.03
2018-12-26T00:51:12.774Z,8.80
2018-12-26T00:53:42.571Z,8.57
2018-12-26T00:56:31.478Z,9.98
2018-12-26T00:59:23.038Z,9.13
2018-12-26T01:01:52.539Z,9.40
2018-12-26T01:04:21.926Z,9.33
2018-12-26T01:06:51.436Z,10.47
2018-12-26T01:09:20.962Z,10.48
2018-12-26T01:11:50.354Z,10.40
2018-12-26T01:14:19.762Z,10.20
2018-12-26T01:16:49.305Z,10.20
2018-12-26T01:19:18.692Z,11.57
2018-12-26T01:21:48.086Z,11.50
2018-12-26T01:26:58.887Z,12.90
2018-12-26T01:32:09.912Z,13.63
2018-12-26T01:34:39.393Z,13.27
2018-12-26T01:37:08.790Z,12.30
2018-12-26T01:39:38.225Z,12.03
2018-12-26T01:42:07.861Z,12.57
2018-12-26T01:44:37.824Z,11.73
2018-12-26T01:47:07.318Z,13.17
2018-12-26T01:49:36.764Z,12.73
2018-12-26T01:52:06.198Z,13.50
2018-12-26T01:54:35.584Z,12.97
2018-12-26T01:57:05.102Z,13.40
2018-12-26T01:59:34.548Z,13.70
2018-12-26T02:02:04.082Z,15.20
2018-12-26T02:04:33.659Z,15.57
2018-12-26T02:07:03.197Z,14.40
2018-12-26T02:09:32.588Z,15.20
2018-12-26T02:12:02.145Z,14.20
2018-12-26T02:14:31.576Z,13.10
2018-12-26T02:17:01.031Z,15.90
2018-12-26T02:19:30.651Z,14.43
2018-12-26T02:22:00.079Z,14.58
2018-12-26T02:24:29.493Z,14.77
2018-12-26T02:26:58.929Z,14.80
2018-12-26T02:29:28.332Z,14.13
2018-12-26T02:31:57.853Z,15.73
2018-12-26T02:34:38.809Z,14.20
2018-12-26T02:37:08.272Z,14.83
2018-12-26T02:39:37.820Z,15.63
2018-12-26T02:42:07.347Z,13.97
2018-12-26T02:44:36.879Z,14.30
2018-12-26T02:47:06.355Z,14.03
2018-12-26T02:49:37.603Z,13.87
2018-12-26T02:52:26.034Z,15.13
2018-12-26T02:57:37.369Z,14.10
2018-12-26T03:00:07.288Z,14.20
2018-12-26T03:02:55.637Z,14.50
2018-12-26T03:05:25.162Z,14.00
2018-12-26T03:07:54.574Z,13.60
2018-12-26T03:10:23.969Z,14.13
2018-12-26T03:13:12.431Z,14.37
2018-12-26T03:15:42.843Z,14.63
2018-12-26T03:18:12.769Z,14.00
2018-12-26T03:21:01.756Z,14.75
2018-12-26T03:23:31.179Z,14.53
2018-12-26T03:26:00.546Z,13.73
2018-12-26T03:28:48.931Z,14.23
2018-12-26T03:31:18.340Z,13.87
2018-12-26T03:33:47.734Z,14.00
2018-12-26T03:36:28.629Z,15.33
2018-12-26T03:38:58.031Z,14.95
2018-12-26T03:41:27.564Z,14.80
2018-12-26T03:43:57.170Z,14.90
2018-12-26T03:46:45.877Z,13.77
2018-12-26T03:49:15.441Z,15.23
2018-12-26T03:51:44.792Z,15.20
2018-12-26T03:54:14.185Z,13.80
2018-12-26T03:56:43.852Z,14.23
2018-12-26T03:59:32.287Z,14.50
2018-12-26T04:02:01.726Z,15.10
2018-12-26T04:04:31.134Z,14.90
2018-12-26T04:07:00.530Z,13.43
2018-12-26T04:09:30.089Z,14.85
2018-12-26T04:11:59.622Z,14.78
2018-12-26T04:14:29.007Z,15.63
2018-12-26T04:16:58.602Z,14.50
2018-12-26T04:22:16.689Z,14.60
2018-12-26T04:30:28.212Z,14.67
2018-12-26T04:32:57.779Z,13.95
2018-12-26T04:35:27.179Z,14.40
2018-12-26T04:40:45.049Z,13.70
2018-12-26T04:43:14.425Z,15.30
2018-12-26T04:45:43.862Z,14.33
2018-12-26T04:48:13.385Z,14.97
2018-12-26T04:50:42.832Z,14.93
2018-12-26T04:53:12.860Z,14.83
2018-12-26T04:55:43.219Z,14.13
2018-12-26T04:58:13.164Z,14.73
2018-12-26T05:00:43.086Z,14.17
2018-12-26T05:05:54.249Z,15.30
2018-12-26T05:08:23.696Z,14.37
2018-12-26T05:11:12.043Z,15.07
2018-12-26T05:13:41.604Z,14.00
2018-12-26T05:16:10.997Z,13.70
2018-12-26T05:18:59.401Z,14.43
2018-12-26T05:21:28.929Z,14.60
2018-12-26T05:23:58.341Z,15.27
2018-12-26T05:26:27.871Z,14.53
2018-12-26T05:28:57.261Z,15.07
2018-12-26T05:31:26.674Z,14.43
2018-12-26T05:34:15.144Z,14.13
2018-12-26T05:37:03.594Z,13.17
2018-12-26T05:42:14.510Z,17.37
2018-12-26T05:47:25.766Z,15.85
2018-12-26T05:50:14.316Z,16.87
2018-12-26T05:52:46.209Z,16.33
2018-12-26T05:55:15.642Z,18.03
2018-12-26T05:57:45.142Z,19.43
2018-12-26T06:00:14.558Z,17.23
2018-12-26T06:03:03.054Z,19.70
2018-12-26T06:05:32.531Z,20.60
2018-12-26T06:08:01.969Z,20.63
2018-12-26T06:10:31.407Z,19.33
2018-12-26T06:13:00.805Z,20.37
2018-12-26T06:15:30.189Z,19.00
2018-12-26T06:17:59.756Z,20.43
2018-12-26T06:20:29.154Z,20.53
2018-12-26T06:22:58.542Z,20.27
2018-12-26T06:25:28.082Z,20.27
2018-12-26T06:30:46.003Z,21.53
2018-12-26T06:33:15.382Z,22.60
2018-12-26T06:35:44.801Z,20.43
2018-12-26T06:38:14.314Z,21.30
2018-12-26T06:40:43.879Z,20.47
2018-12-26T06:43:13.271Z,19.80
2018-12-26T06:45:43.216Z,20.87
2018-12-26T06:48:13.015Z,22.07
2018-12-26T06:50:42.969Z,22.00
2018-12-26T06:55:54.315Z,20.30
2018-12-26T06:58:23.766Z,23.63
2018-12-26T07:00:53.198Z,19.95
2018-12-26T07:03:22.595Z,21.97
2018-12-26T07:05:52.057Z,20.97
2018-12-26T07:08:21.439Z,21.77
2018-12-26T07:10:50.835Z,20.27
2018-12-26T07:16:01.751Z,23.07
2018-12-26T07:18:31.199Z,20.17
2018-12-26T07:21:00.580Z,21.75
2018-12-26T07:23:49.036Z,20.37
2018-12-26T07:26:18.461Z,21.03
2018-12-26T07:28:47.856Z,20.17
2018-12-26T07:31:17.423Z,19.90
2018-12-26T07:33:46.820Z,20.37
2018-12-26T07:36:16.204Z,19.37
2018-12-26T07:38:45.651Z,20.13
2018-12-26T07:41:15.076Z,20.62
2018-12-26T07:43:44.579Z,20.47
2018-12-26T07:46:14.196Z,20.33
2018-12-26T07:48:43.582Z,18.73
2018-12-26T07:51:13.159Z,18.87
2018-12-26T07:53:43.288Z,18.73
2018-12-26T07:56:13.112Z,17.87
2018-12-26T07:58:43.222Z,17.95
2018-12-26T08:03:55.041Z,17.70
2018-12-26T08:09:07.242Z,19.80
2018-12-26T08:11:36.775Z,16.43
2018-12-26T08:14:06.234Z,17.90
2018-12-26T08:16:54.622Z,18.77
2018-12-26T08:19:24.086Z,19.47
2018-12-26T08:21:53.483Z,18.17
2018-12-26T08:24:23.083Z,17.17
2018-12-26T08:26:53.625Z,16.03
2018-12-26T08:29:23.688Z,18.60
2018-12-26T08:31:53.146Z,17.03
2018-12-26T08:34:22.548Z,15.70
2018-12-26T08:36:51.997Z,16.33
2018-12-26T08:39:21.482Z,16.13
2018-12-26T08:41:50.949Z,18.50
2018-12-26T08:47:08.895Z,15.53
2018-12-26T08:49:38.292Z,13.90
2018-12-26T08:52:07.698Z,14.90
2018-12-26T08:54:37.161Z,15.45
2018-12-26T08:57:06.583Z,13.90
2018-12-26T08:59:36.036Z,15.50
2018-12-26T09:02:05.500Z,16.97
2018-12-26T09:04:53.962Z,14.47
2018-12-26T09:07:23.510Z,15.63
2018-12-26T09:10:11.913Z,14.27
2018-12-26T09:13:00.288Z,14.03
2018-12-26T09:15:29.687Z,14.25
2018-12-26T09:17:59.048Z,15.60
2018-12-26T09:20:28.522Z,14.18
2018-12-26T09:22:57.918Z,14.03
2018-12-26T09:25:27.730Z,12.95
2018-12-26T09:27:57.298Z,12.28
2018-12-26T09:30:26.775Z,12.50
2018-12-26T09:32:56.174Z,12.68
2018-12-26T09:35:25.730Z,13.47
2018-12-26T09:38:14.058Z,11.47
2018-12-26T09:40:43.740Z,10.87
2018-12-26T09:43:13.357Z,11.30
2018-12-26T09:45:43.268Z,11.67
2018-12-26T09:48:13.695Z,13.22
2018-12-26T09:50:43.312Z,12.20
2018-12-26T09:53:15.871Z,11.65
2018-12-26T09:56:05.841Z,13.17
2018-12-26T09:58:35.323Z,12.37
2018-12-26T10:03:53.318Z,12.18
2018-12-26T10:06:22.701Z,11.30
2018-12-26T10:08:52.248Z,12.90
2018-12-26T10:11:21.711Z,12.53
2018-12-26T10:13:51.272Z,11.00
2018-12-26T10:16:20.767Z,13.72
2018-12-26T10:18:50.246Z,11.77
2018-12-26T10:21:19.631Z,11.90
2018-12-26T10:23:49.045Z,12.73
2018-12-26T10:26:18.734Z,11.17
2018-12-26T10:28:48.223Z,14.20
2018-12-26T10:31:17.868Z,11.10
2018-12-26T10:34:06.736Z,10.60
2018-12-26T10:36:36.130Z,10.53
2018-12-26T10:39:44.915Z,10.53
2018-12-26T10:42:14.434Z,11.43
2018-12-26T10:44:43.869Z,10.40
2018-12-26T10:47:16.419Z,10.83
2018-12-26T10:49:45.910Z,9.93
2018-12-26T10:52:15.514Z,9.83
2018-12-26T10:54:45.074Z,9.13
2018-12-26T10:57:14.500Z,8.97
2018-12-26T10:59:43.977Z,9.70
2018-12-26T11:02:32.387Z,8.73
2018-12-26T11:05:01.940Z,8.23
2018-12-26T11:07:31.334Z,8.63
2018-12-26T11:10:00.907Z,8.27
2018-12-26T11:12:30.312Z,7.53
2018-12-26T11:14:59.716Z,7.83
2018-12-26T11:20:30.994Z,8.23
2018-12-26T11:23:00.400Z,8.58
2018-12-26T11:25:29.789Z,8.05
2018-12-26T11:27:59.260Z,8.13
2018-12-26T11:30:28.711Z,7.90
2018-12-26T11:33:17.263Z,8.30
2018-12-26T11:35:46.664Z,8.00
2018-12-26T11:38:16.135Z,8.57
2018-12-26T11:40:45.652Z,8.90
2018-12-26T11:43:15.061Z,8.80
2018-12-26T11:45:44.529Z,8.97
2018-12-26T11:48:14.090Z,8.23
2018-12-26T11:50:54.904Z,8.13
2018-12-26T11:53:24.363Z,8.70
2018-12-26T11:55:53.894Z,9.40
2018-12-26T11:58:23.372Z,8.05
2018-12-26T12:00:53.041Z,8.30
2018-12-26T12:03:22.574Z,8.17
2018-12-26T12:05:52.009Z,7.72
2018-12-26T12:08:21.469Z,9.23
2018-12-26T12:13:32.382Z,8.70
2018-12-26T12:16:01.875Z,8.23
2018-12-26T12:18:31.302Z,8.23
2018-12-26T12:21:00.721Z,7.80
2018-12-26T12:23:30.232Z,8.50
2018-12-26T12:25:59.718Z,9.13
2018-12-26T12:28:48.203Z,7.97
2018-12-26T12:31:17.642Z,8.65
2018-12-26T12:33:46.981Z,9.27
2018-12-26T12:36:16.444Z,9.37
2018-12-26T12:38:45.892Z,9.37
2018-12-26T12:41:15.275Z,9.83
2018-12-26T12:43:44.920Z,9.57
2018-12-26T12:46:14.306Z,9.43
2018-12-26T12:48:43.818Z,9.03
2018-12-26T12:51:13.600Z,9.40
2018-12-26T12:53:43.641Z,10.32
2018-12-26T12:56:13.454Z,10.20
2018-12-26T12:58:43.543Z,10.13
2018-12-26T13:01:13.603Z,10.03
2018-12-26T13:03:46.592Z,10.60
2018-12-26T13:06:14.776Z,10.33
2018-12-26T13:08:44.180Z,10.60
2018-12-26T13:11:13.584Z,10.87
2018-12-26T13:16:24.869Z,10.73
2018-12-26T13:18:54.338Z,10.03
2018-12-26T13:21:23.715Z,10.30
2018-12-26T13:23:53.150Z,11.80
2018-12-26T13:26:22.625Z,12.00
2018-12-26T13:28:52.065Z,13.37
2018-12-26T13:31:21.532Z,10.82
2018-12-26T13:33:51.120Z,11.53
2018-12-26T13:39:09.058Z,11.23
2018-12-26T13:41:38.470Z,13.72
2018-12-26T13:44:07.877Z,14.20
2018-12-26T13:46:37.419Z,12.80
2018-12-26T13:49:06.843Z,14.30
2018-12-26T13:51:55.393Z,16.37
2018-12-26T13:54:24.873Z,17.75
2018-12-26T13:56:54.285Z,18.80
2018-12-26T13:59:42.866Z,18.50
2018-12-26T14:02:12.275Z,17.53
2018-12-26T14:07:43.627Z,20.05
2018-12-26T14:10:13.703Z,20.25
2018-12-26T14:12:43.649Z,19.62
2018-12-26T14:15:13.720Z,20.92
2018-12-26T14:17:43.749Z,20.88
2018-12-26T14:20:13.628Z,20.92
2018-12-26T14:22:43.672Z,21.75
2018-12-26T14:25:13.818Z,21.17
2018-12-26T14:27:43.656Z,21.30
2018-12-26T14:30:13.707Z,25.35
2018-12-26T14:32:43.755Z,22.98
2018-12-26T14:38:02.176Z,24.07
2018-12-26T14:40:31.783Z,22.05
2018-12-26T14:43:01.181Z,21.33
2018-12-26T14:45:30.702Z,22.90
2018-12-26T14:48:00.092Z,23.05
2018-12-26T14:50:29.478Z,21.67
2018-12-26T14:52:59.082Z,22.63
2018-12-26T14:55:28.501Z,22.45
2018-12-26T14:57:57.970Z,22.27
2018-12-26T15:00:27.478Z,22.77
2018-12-26T15:02:57.020Z,19.35
2018-12-26T15:05:26.480Z,22.25
2018-12-26T15:08:14.969Z,22.67
2018-12-26T15:10:44.396Z,21.27
2018-12-26T15:13:13.833Z,20.87
2018-12-26T15:15:43.990Z,19.65
2018-12-26T15:18:13.734Z,18.60
2018-12-26T15:21:02.782Z,19.27
2018-12-26T15:23:32.174Z,18.53
2018-12-26T15:28:50.070Z,17.73
2018-12-26T15:31:19.488Z,18.93
2018-12-26T15:33:48.908Z,16.87
2018-12-26T15:36:18.495Z,17.20
2018-12-26T15:38:47.907Z,18.07
2018-12-26T15:41:17.329Z,18.87
2018-12-26T15:43:46.796Z,17.07
2018-12-26T15:46:16.248Z,20.60
2018-12-26T15:48:45.718Z,16.73
2018-12-26T15:51:15.260Z,19.00
2018-12-26T15:54:03.508Z,19.00
2018-12-26T15:56:33.089Z,16.70
2018-12-26T15:59:21.515Z,17.23
2018-12-26T16:04:32.380Z,18.27
2018-12-26T16:07:01.867Z,18.10
2018-12-26T16:09:31.281Z,18.92
2018-12-26T16:12:00.682Z,20.83
2018-12-26T16:14:30.203Z,19.57
2018-12-26T16:16:59.721Z,20.60
2018-12-26T16:19:48.265Z,20.03
2018-12-26T16:22:18.051Z,21.13
2018-12-26T16:24:47.464Z,20.60
2018-12-26T16:27:16.895Z,22.33
2018-12-26T16:29:46.361Z,20.63
2018-12-26T16:32:15.769Z,22.03
2018-12-26T16:34:45.334Z,19.97
2018-12-26T16:37:14.732Z,18.82
2018-12-26T16:39:44.130Z,20.97
2018-12-26T16:42:13.904Z,21.67
2018-12-26T16:44:43.943Z,20.23
2018-12-26T16:47:13.925Z,19.67
2018-12-26T16:49:43.849Z,19.63
2018-12-26T16:52:13.860Z,20.50
2018-12-26T16:54:43.869Z,22.30
2018-12-26T16:57:14.029Z,19.03
2018-12-26T16:59:43.950Z,22.83
2018-12-26T17:02:14.042Z,22.05
2018-12-26T17:04:44.124Z,22.37
2018-12-26T17:07:13.909Z,21.10
2018-12-26T17:12:32.369Z,23.37
2018-12-26T17:15:01.778Z,23.87
2018-12-26T17:17:31.211Z,23.43
2018-12-26T17:20:00.684Z,24.67
2018-12-26T17:22:48.996Z,27.17
2018-12-26T17:28:19.574Z,26.40
2018-12-26T17:31:04.328Z,25.32
2018-12-26T17:33:31.882Z,24.93
2018-12-26T17:36:01.273Z,28.38
2018-12-26T17:38:30.884Z,26.10
2018-12-26T17:41:19.297Z,25.53
2018-12-26T17:43:48.820Z,23.38
2018-12-26T17:46:18.248Z,23.77
2018-12-26T17:49:06.620Z,24.43
2018-12-26T17:52:06.841Z,23.83
2018-12-26T17:54:58.921Z,23.97
2018-12-26T17:57:50.834Z,26.03
2018-12-26T18:00:57.947Z,21.90
2018-12-26T18:03:27.450Z,24.77
2018-12-26T18:05:56.838Z,23.05
2018-12-26T18:08:26.362Z,23.38
2018-12-26T18:10:55.767Z,21.37
2018-12-26T18:16:26.889Z,23.27
2018-12-26T18:18:56.319Z,20.70
2018-12-26T18:21:25.732Z,23.27
2018-12-26T18:23:55.284Z,22.00
2018-12-26T18:26:43.535Z,22.83
2018-12-26T18:29:14.123Z,20.62
2018-12-26T18:31:44.053Z,22.37
2018-12-26T18:34:14.080Z,21.97
2018-12-26T18:39:25.800Z,21.60
2018-12-26T18:41:55.218Z,21.87
2018-12-26T18:44:24.669Z,20.07
2018-12-26T18:46:54.188Z,21.23
2018-12-26T18:49:23.690Z,20.73
2018-12-26T18:51:53.088Z,20.63
2018-12-26T18:54:22.532Z,19.93
2018-12-26T18:56:51.915Z,21.00
2018-12-26T18:59:21.312Z,18.17
2018-12-26T19:01:50.748Z,20.47
2018-12-26T19:04:20.204Z,19.37
2018-12-26T19:06:49.815Z,20.80
2018-12-26T19:09:19.284Z,18.83
2018-12-26T19:11:48.680Z,20.35
2018-12-26T19:14:49.225Z,19.20
2018-12-26T19:17:29.835Z,20.23
2018-12-26T19:19:59.221Z,19.33
2018-12-26T19:22:28.737Z,20.50
2018-12-26T19:24:58.116Z,17.77
2018-12-26T19:30:40.493Z,21.00
2018-12-26T19:33:40.848Z,20.50
2018-12-26T19:36:41.193Z,19.40
2018-12-26T19:39:10.612Z,18.57
2018-12-26T19:41:40.066Z,18.60
2018-12-26T19:46:51.010Z,18.57
2018-12-26T19:49:20.529Z,19.03
2018-12-26T19:51:49.923Z,19.90
2018-12-26T19:54:19.310Z,21.30
2018-12-26T19:56:48.944Z,18.70
2018-12-26T19:59:18.348Z,21.37
2018-12-26T20:01:48.294Z,22.03
2018-12-26T20:04:18.948Z,21.87
2018-12-26T20:10:08.814Z,20.23
2018-12-26T20:16:17.700Z,21.83
2018-12-26T20:18:57.436Z,20.53
2018-12-26T20:22:06.140Z,20.77
2018-12-26T20:30:36.161Z,17.77
2018-12-26T20:33:05.666Z,19.83
2018-12-26T20:35:54.007Z,18.00
2018-12-26T20:39:02.801Z,18.63
2018-12-26T20:41:42.534Z,17.97
2018-12-26T20:44:51.234Z,17.40
2018-12-26T20:47:20.651Z,19.17
2018-12-26T20:52:50.966Z,19.00
2018-12-26T20:58:54.874Z,19.17
2018-12-26T21:01:24.283Z,19.83
2018-12-26T21:04:32.994Z,18.17
2018-12-26T21:07:13.911Z,20.23
2018-12-26T21:09:44.353Z,19.00
2018-12-26T21:15:27.979Z,19.90
2018-12-26T21:17:57.621Z,20.52
2018-12-26T21:23:42.364Z,19.53
2018-12-26T21:26:11.963Z,19.33
2018-12-26T21:29:00.385Z,21.87
2018-12-26T21:31:31.800Z,18.95
2018-12-26T21:34:00.968Z,17.77
2018-12-26T21:36:49.428Z,19.25
2018-12-26T21:39:18.978Z,19.42
2018-12-26T21:41:48.369Z,21.25
2018-12-26T21:44:57.084Z,20.40
2018-12-26T21:50:57.985Z,20.55
2018-12-26T21:53:27.382Z,20.10
2018-12-26T21:55:56.987Z,19.95
2018-12-26T22:01:49.598Z,21.37
2018-12-26T22:04:19.012Z,21.48
2018-12-26T22:06:48.520Z,21.13
2018-12-26T22:11:59.643Z,22.73
2018-12-26T22:14:29.244Z,21.80
2018-12-26T22:17:10.279Z,19.87
2018-12-26T22:19:39.805Z,19.10
2018-12-26T22:22:09.395Z,20.75
2018-12-26T22:27:39.457Z,20.43
2018-12-26T22:30:49.302Z,22.33
2018-12-26T22:33:18.764Z,20.37
2018-12-26T22:36:27.724Z,20.72
2018-12-26T22:38:57.121Z,22.17
2018-12-26T22:41:57.072Z,20.17
2018-12-26T22:44:57.070Z,21.07
2018-12-26T22:50:18.247Z,20.10
2018-12-26T22:56:08.535Z,21.62
2018-12-26T22:59:09.139Z,20.57
2018-12-26T23:02:09.243Z,21.30
2018-12-26T23:04:48.981Z,20.60
2018-12-26T23:10:51.169Z,22.50
2018-12-26T23:13:20.816Z,22.53
2018-12-26T23:15:50.340Z,24.27
2018-12-26T23:18:20.871Z,22.93
2018-12-26T23:20:50.314Z,24.07
2018-12-26T23:23:19.717Z,23.10
2018-12-26T23:28:31.014Z,25.77
2018-12-26T23:34:12.423Z,26.17
2018-12-26T23:36:41.946Z,26.63
2018-12-26T23:39:11.409Z,25.77
2018-12-26T23:41:40.795Z,28.00
2018-12-26T23:47:30.814Z,29.53
2018-12-26T23:50:11.363Z,28.37
2018-12-26T23:52:40.738Z,29.57
2018-12-26T23:58:08.833Z,30.17
